createdAt,value
2018-06-24T00:03:00.059Z,9.13
2018-06-24T00:08:03.520Z,9.48
2018-06-24T00:13:07.155Z,11.25
2018-06-24T00:18:11.923Z,9.30
2018-06-24T00:23:18.393Z,9.63
2018-06-24T00:28:23.898Z,7.77
2018-06-24T00:33:27.543Z,7.50
2018-06-24T00:38:35.489Z,9.35
2018-06-24T00:43:39.047Z,9.80
2018-06-24T00:48:44.683Z,9.23
2018-06-24T00:53:52.891Z,9.33
2018-06-24T00:58:58.481Z,10.13
2018-06-24T01:04:02.958Z,9.80
2018-06-24T01:09:08.251Z,9.00
2018-06-24T01:14:11.812Z,9.45
2018-06-24T01:19:15.992Z,9.15
2018-06-24T01:24:20.600Z,8.40
2018-06-24T01:29:23.851Z,7.90
2018-06-24T01:34:27.550Z,10.90
2018-06-24T01:39:31.108Z,9.50
2018-06-24T01:44:34.979Z,9.20
2018-06-24T01:49:38.695Z,8.25
2018-06-24T01:54:43.800Z,8.43
2018-06-24T01:59:48.307Z,9.30
2018-06-24T02:04:51.815Z,8.05
2018-06-24T02:09:55.328Z,8.10
2018-06-24T02:14:58.862Z,9.08
2018-06-24T02:20:02.483Z,8.50
2018-06-24T02:25:05.987Z,9.10
2018-06-24T02:30:09.470Z,9.83
2018-06-24T02:35:13.007Z,9.33
2018-06-24T02:40:16.521Z,11.03
2018-06-24T02:45:20.781Z,9.65
2018-06-24T02:50:25.943Z,10.10
2018-06-24T02:55:29.543Z,10.03
2018-06-24T03:00:35.104Z,10.10
2018-06-24T03:05:38.803Z,9.23
2018-06-24T03:10:42.436Z,9.25
2018-06-24T03:15:46.770Z,10.68
2018-06-24T03:20:50.442Z,9.98
2018-06-24T03:25:54.194Z,11.60
2018-06-24T03:30:57.753Z,9.15
2018-06-24T03:36:01.477Z,9.80
2018-06-24T03:41:05.368Z,9.63
2018-06-24T03:46:09.033Z,9.87
2018-06-24T03:57:19.146Z,10.08
2018-06-24T04:02:22.774Z,9.60
2018-06-24T04:07:27.547Z,10.77
2018-06-24T04:12:31.207Z,10.10
2018-06-24T04:17:34.794Z,9.90
2018-06-24T04:22:39.681Z,10.50
2018-06-24T04:27:47.160Z,10.82
2018-06-24T04:32:53.371Z,10.87
2018-06-24T04:37:57.156Z,8.25
2018-06-24T04:43:00.854Z,10.23
2018-06-24T04:48:04.906Z,9.63
2018-06-24T04:53:08.415Z,9.18
2018-06-24T04:58:11.888Z,9.88
2018-06-24T05:03:16.270Z,9.18
2018-06-24T05:08:19.790Z,8.13
2018-06-24T05:13:23.423Z,8.40
2018-06-24T05:18:26.960Z,7.67
2018-06-24T05:23:30.548Z,7.33
2018-06-24T05:28:35.300Z,6.62
2018-06-24T05:33:38.817Z,9.90
2018-06-24T05:38:42.818Z,7.05
2018-06-24T05:43:46.355Z,7.45
2018-06-24T05:48:50.038Z,9.15
2018-06-24T05:53:53.699Z,8.40
2018-06-24T05:58:57.542Z,7.10
2018-06-24T06:04:01.193Z,8.60
2018-06-24T06:09:08.220Z,6.83
2018-06-24T06:14:16.236Z,9.87
2018-06-24T06:19:20.089Z,6.50
2018-06-24T06:24:23.716Z,7.55
2018-06-24T06:29:27.484Z,10.53
2018-06-24T06:34:34.537Z,7.83
2018-06-24T06:39:38.146Z,5.53
2018-06-24T06:44:41.839Z,7.25
2018-06-24T06:49:45.299Z,6.47
2018-06-24T06:54:50.332Z,6.40
2018-06-24T06:59:54.044Z,6.08
2018-06-24T07:04:57.576Z,4.67
2018-06-24T07:10:02.652Z,6.35
2018-06-24T07:15:07.358Z,5.62
2018-06-24T07:20:10.945Z,5.47
2018-06-24T07:25:15.004Z,4.67
2018-06-24T07:30:19.006Z,7.17
2018-06-24T07:35:23.070Z,5.80
2018-06-24T07:40:30.438Z,4.27
2018-06-24T07:45:35.561Z,5.70
2018-06-24T07:50:40.803Z,4.60
2018-06-24T07:55:47.114Z,4.17
2018-06-24T08:00:51.421Z,4.12
2018-06-24T08:05:55.397Z,5.33
2018-06-24T08:11:00.208Z,5.17
2018-06-24T08:16:04.745Z,5.95
2018-06-24T08:21:09.430Z,6.47
2018-06-24T08:26:13.007Z,8.08
2018-06-24T08:31:16.629Z,6.27
2018-06-24T08:36:21.520Z,5.92
2018-06-24T08:41:25.230Z,4.57
2018-06-24T08:46:29.190Z,5.72
2018-06-24T08:51:38.189Z,6.17
2018-06-24T08:56:42.983Z,5.10
2018-06-24T09:01:46.708Z,5.97
2018-06-24T09:06:52.139Z,6.43
2018-06-24T09:11:57.911Z,6.22
2018-06-24T09:17:02.287Z,7.00
2018-06-24T09:22:06.172Z,8.90
2018-06-24T09:27:09.911Z,10.53
2018-06-24T09:32:13.466Z,14.90
2018-06-24T09:37:16.806Z,13.00
2018-06-24T09:42:20.464Z,13.53
2018-06-24T09:47:24.054Z,13.60
2018-06-24T09:52:27.428Z,13.43
2018-06-24T09:57:30.959Z,11.57
2018-06-24T10:02:34.686Z,14.80
2018-06-24T10:07:39.073Z,15.03
2018-06-24T10:12:42.892Z,13.90
2018-06-24T10:17:47.463Z,13.43
2018-06-24T10:22:51.004Z,13.68
2018-06-24T10:27:54.705Z,13.95
2018-06-24T10:32:58.220Z,14.30
2018-06-24T10:38:03.424Z,12.15
2018-06-24T10:43:07.128Z,14.30
2018-06-24T10:48:10.627Z,16.53
2018-06-24T10:53:14.024Z,14.10
2018-06-24T10:58:17.601Z,13.83
2018-06-24T11:03:21.711Z,13.30
2018-06-24T11:08:25.399Z,16.73
2018-06-24T11:13:28.843Z,15.17
2018-06-24T11:18:33.784Z,12.98
2018-06-24T11:23:37.241Z,14.20
2018-06-24T11:28:41.063Z,14.45
2018-06-24T11:33:45.715Z,12.93
2018-06-24T11:38:49.330Z,10.32
2018-06-24T11:43:52.808Z,10.10
2018-06-24T11:48:56.237Z,9.60
2018-06-24T11:53:59.791Z,9.97
2018-06-24T11:59:03.302Z,7.73
2018-06-24T12:04:10.995Z,7.97
2018-06-24T12:09:14.440Z,7.25
2018-06-24T12:14:17.952Z,9.50
2018-06-24T12:19:22.254Z,9.20
2018-06-24T12:24:25.931Z,9.47
2018-06-24T12:29:29.444Z,9.70
2018-06-24T12:34:36.274Z,10.00
2018-06-24T12:39:39.733Z,8.10
2018-06-24T12:44:43.213Z,8.90
2018-06-24T12:49:46.863Z,8.15
2018-06-24T12:54:50.384Z,8.13
2018-06-24T12:59:55.364Z,7.55
2018-06-24T13:05:03.815Z,5.77
2018-06-24T13:10:08.747Z,6.83
2018-06-24T13:15:13.456Z,6.00
2018-06-24T13:20:17.768Z,7.70
2018-06-24T13:25:21.239Z,7.33
2018-06-24T13:30:25.171Z,6.28
2018-06-24T13:35:32.384Z,6.30
2018-06-24T13:40:35.883Z,7.37
2018-06-24T13:45:40.299Z,7.05
2018-06-24T13:50:46.157Z,6.83
2018-06-24T13:55:51.388Z,6.20
2018-06-24T14:00:55.951Z,7.65
2018-06-24T14:06:03.634Z,8.20
2018-06-24T14:11:12.759Z,7.45
2018-06-24T14:16:16.169Z,5.40
2018-06-24T14:21:28.973Z,5.63
2018-06-24T14:26:32.785Z,5.90
2018-06-24T14:31:44.502Z,8.03
2018-06-24T14:37:02.895Z,6.00
2018-06-24T14:42:19.775Z,6.13
2018-06-24T14:52:55.430Z,5.50
2018-06-24T14:57:58.941Z,6.28
2018-06-24T15:03:06.865Z,5.67
2018-06-24T15:08:25.286Z,6.60
2018-06-24T15:13:49.632Z,6.60
2018-06-24T15:19:10.446Z,6.00
2018-06-24T15:24:23.949Z,5.22
2018-06-24T15:29:41.426Z,4.10
2018-06-24T15:34:49.528Z,3.70
2018-06-24T15:39:57.806Z,4.20
2018-06-24T15:45:02.650Z,4.87
2018-06-24T15:50:15.487Z,5.40
2018-06-24T15:55:25.076Z,7.17
2018-06-24T16:00:28.739Z,5.50
2018-06-24T16:05:32.257Z,13.13
2018-06-24T16:10:37.647Z,8.95
2018-06-24T16:15:42.368Z,3.40
2018-06-24T16:20:46.131Z,3.50
2018-06-24T16:25:51.953Z,3.50
2018-06-24T16:30:55.397Z,3.37
2018-06-24T16:36:00.237Z,4.40
2018-06-24T16:41:04.886Z,3.70
2018-06-24T16:46:08.490Z,3.15
2018-06-24T16:51:13.306Z,3.75
2018-06-24T16:56:16.843Z,2.87
2018-06-24T17:01:21.018Z,5.65
2018-06-24T17:06:24.666Z,4.87
2018-06-24T17:11:28.555Z,4.87
2018-06-24T17:16:32.167Z,4.83
2018-06-24T17:21:36.599Z,3.92
2018-06-24T17:26:39.976Z,4.43
2018-06-24T17:31:52.970Z,5.10
2018-06-24T17:42:16.427Z,4.35
2018-06-24T17:53:03.793Z,3.60
2018-06-24T17:58:20.821Z,4.72
2018-06-24T18:03:25.234Z,4.30
2018-06-24T18:09:00.993Z,3.50
2018-06-24T18:14:11.689Z,3.62
2018-06-24T18:19:22.506Z,3.30
2018-06-24T18:24:33.649Z,3.60
2018-06-24T18:29:37.944Z,4.00
2018-06-24T18:34:43.556Z,3.22
2018-06-24T18:39:47.158Z,4.80
2018-06-24T18:44:58.259Z,3.77
2018-06-24T18:50:25.638Z,3.10
2018-06-24T18:55:40.250Z,2.92
2018-06-24T19:00:46.020Z,6.17
2018-06-24T19:05:50.549Z,3.65
2018-06-24T19:10:55.584Z,3.20
2018-06-24T19:16:11.895Z,5.10
2018-06-24T19:21:15.711Z,4.30
2018-06-24T19:31:53.609Z,3.20
2018-06-24T19:42:10.014Z,3.70
2018-06-24T19:47:18.040Z,3.62
2018-06-24T19:58:02.778Z,2.80
2018-06-24T20:08:31.228Z,2.75
2018-06-24T20:13:37.354Z,3.75
2018-06-24T20:18:44.599Z,3.42
2018-06-24T20:23:58.601Z,2.60
2018-06-24T20:29:04.292Z,2.30
2018-06-24T20:34:10.402Z,2.72
2018-06-24T20:39:24.567Z,3.15
2018-06-24T20:44:41.330Z,2.90
2018-06-24T20:49:55.874Z,4.77
2018-06-24T20:55:03.081Z,3.77
2018-06-24T21:00:07.207Z,4.30
2018-06-24T21:05:10.821Z,2.20
2018-06-24T21:10:31.841Z,2.50
2018-06-24T21:15:43.036Z,3.50
2018-06-24T21:20:50.646Z,2.73
2018-06-24T21:31:13.092Z,2.70
2018-06-24T21:36:22.082Z,4.90
2018-06-24T21:41:29.186Z,3.50
2018-06-24T21:46:40.087Z,2.30
2018-06-24T21:51:50.869Z,2.27
2018-06-24T21:56:54.389Z,3.40
2018-06-24T22:02:01.100Z,3.17
2018-06-24T22:07:09.485Z,2.70
2018-06-24T22:12:15.298Z,2.45
2018-06-24T22:17:21.365Z,2.50
2018-06-24T22:22:26.494Z,3.20
2018-06-24T22:27:30.350Z,3.20
2018-06-24T22:32:39.405Z,2.30
2018-06-24T22:37:45.699Z,2.60
2018-06-24T22:42:50.590Z,3.00
2018-06-24T22:47:56.140Z,3.00
2018-06-24T22:53:05.816Z,2.90
2018-06-24T22:58:09.371Z,3.00
2018-06-24T23:03:12.992Z,4.17
2018-06-24T23:08:17.489Z,2.62
2018-06-24T23:13:21.098Z,2.70
2018-06-24T23:18:24.535Z,3.20
2018-06-24T23:23:28.100Z,3.35
2018-06-24T23:28:31.638Z,2.70
2018-06-24T23:33:35.268Z,2.80
2018-06-24T23:38:38.979Z,2.90
2018-06-24T23:43:42.389Z,3.10
2018-06-24T23:48:45.803Z,2.80
2018-06-24T23:53:53.531Z,2.85
2018-06-24T23:58:56.992Z,3.00
